sensor_id;sensor_type;location;lat;lon;timestamp;temperature;humidity
16995;DHT22;8614;48.522;9.206;2022-10-16T00:00:40;15.50;99.90
16995;DHT22;8614;48.522;9.206;2022-10-16T00:03:08;15.50;99.90
16995;DHT22;8614;48.522;9.206;2022-10-16T00:05:39;15.50;99.90
16995;DHT22;8614;48.522;9.206;2022-10-16T00:08:06;15.50;99.90
16995;DHT22;8614;48.522;9.206;2022-10-16T00:10:33;15.50;99.90
16995;DHT22;8614;48.522;9.206;2022-10-16T00:13:01;15.50;99.90
16995;DHT22;8614;48.522;9.206;2022-10-16T00:15:28;15.50;99.90
16995;DHT22;8614;48.522;9.206;2022-10-16T00:17:56;15.50;99.90
16995;DHT22;8614;48.522;9.206;2022-10-16T00:20:23;15.40;99.90
16995;DHT22;8614;48.522;9.206;2022-10-16T00:22:50;15.40;99.90
16995;DHT22;8614;48.522;9.206;2022-10-16T00:25:17;15.40;99.90
16995;DHT22;8614;48.522;9.206;2022-10-16T00:27:43;15.30;99.90
16995;DHT22;8614;48.522;9.206;2022-10-16T00:30:10;15.30;99.90
16995;DHT22;8614;48.522;9.206;2022-10-16T00:32:37;15.30;99.90
16995;DHT22;8614;48.522;9.206;2022-10-16T00:35:06;15.20;99.90
16995;DHT22;8614;48.522;9.206;2022-10-16T00:37:33;15.20;99.90
16995;DHT22;8614;48.522;9.206;2022-10-16T00:40:00;15.20;99.90
16995;DHT22;8614;48.522;9.206;2022-10-16T00:42:27;15.20;99.90
16995;DHT22;8614;48.522;9.206;2022-10-16T00:44:55;15.20;99.90
16995;DHT22;8614;48.522;9.206;2022-10-16T00:47:26;15.20;99.90
16995;DHT22;8614;48.522;9.206;2022-10-16T00:49:58;15.10;99.90
16995;DHT22;8614;48.522;9.206;2022-10-16T00:52:26;15.10;99.90
16995;DHT22;8614;48.522;9.206;2022-10-16T00:54:54;15.10;99.90
16995;DHT22;8614;48.522;9.206;2022-10-16T00:57:21;15.00;99.90
16995;DHT22;8614;48.522;9.206;2022-10-16T00:59:48;15.00;99.90
16995;DHT22;8614;48.522;9.206;2022-10-16T01:02:16;15.00;99.90
16995;DHT22;8614;48.522;9.206;2022-10-16T01:04:46;14.90;99.90
16995;DHT22;8614;48.522;9.206;2022-10-16T01:07:18;14.90;99.90
16995;DHT22;8614;48.522;9.206;2022-10-16T01:10:01;14.90;99.90
16995;DHT22;8614;48.522;9.206;2022-10-16T01:12:35;14.90;99.90
16995;DHT22;8614;48.522;9.206;2022-10-16T01:15:10;14.90;99.90
16995;DHT22;8614;48.522;9.206;2022-10-16T01:17:43;14.90;99.90
16995;DHT22;8614;48.522;9.206;2022-10-16T01:20:17;14.90;99.90
16995;DHT22;8614;48.522;9.206;2022-10-16T01:22:57;14.90;99.90
16995;DHT22;8614;48.522;9.206;2022-10-16T01:25:36;15.00;99.90
16995;DHT22;8614;48.522;9.206;2022-10-16T01:28:09;15.00;99.90
16995;DHT22;8614;48.522;9.206;2022-10-16T01:30:38;15.00;99.90
16995;DHT22;8614;48.522;9.206;2022-10-16T01:33:10;14.90;99.90
16995;DHT22;8614;48.522;9.206;2022-10-16T01:35:42;14.90;99.90
16995;DHT22;8614;48.522;9.206;2022-10-16T01:38:12;14.80;99.90
16995;DHT22;8614;48.522;9.206;2022-10-16T01:40:45;14.80;99.90
16995;DHT22;8614;48.522;9.206;2022-10-16T01:43:17;14.70;99.90
16995;DHT22;8614;48.522;9.206;2022-10-16T01:45:46;14.60;99.90
16995;DHT22;8614;48.522;9.206;2022-10-16T01:48:15;14.60;99.90
16995;DHT22;8614;48.522;9.206;2022-10-16T01:50:44;14.50;99.90
16995;DHT22;8614;48.522;9.206;2022-10-16T01:53:13;14.50;99.90
16995;DHT22;8614;48.522;9.206;2022-10-16T01:55:43;14.50;99.90
16995;DHT22;8614;48.522;9.206;2022-10-16T01:58:13;14.50;99.90
16995;DHT22;8614;48.522;9.206;2022-10-16T02:00:43;14.50;99.90
16995;DHT22;8614;48.522;9.206;2022-10-16T02:03:12;14.50;99.90
16995;DHT22;8614;48.522;9.206;2022-10-16T02:05:44;14.40;99.90
16995;DHT22;8614;48.522;9.206;2022-10-16T02:08:12;14.50;99.90
16995;DHT22;8614;48.522;9.206;2022-10-16T02:10:39;14.50;99.90
16995;DHT22;8614;48.522;9.206;2022-10-16T02:13:09;14.40;99.90
16995;DHT22;8614;48.522;9.206;2022-10-16T02:15:36;14.50;99.90
16995;DHT22;8614;48.522;9.206;2022-10-16T02:18:05;14.50;99.90
16995;DHT22;8614;48.522;9.206;2022-10-16T02:20:38;14.50;99.90
16995;DHT22;8614;48.522;9.206;2022-10-16T02:23:07;14.50;99.90
16995;DHT22;8614;48.522;9.206;2022-10-16T02:25:40;14.50;99.90
16995;DHT22;8614;48.522;9.206;2022-10-16T02:28:10;14.50;99.90
16995;DHT22;8614;48.522;9.206;2022-10-16T02:30:44;14.50;99.90
16995;DHT22;8614;48.522;9.206;2022-10-16T02:33:16;14.50;99.90
16995;DHT22;8614;48.522;9.206;2022-10-16T02:35:46;14.50;99.90
16995;DHT22;8614;48.522;9.206;2022-10-16T02:38:15;14.50;99.90
16995;DHT22;8614;48.522;9.206;2022-10-16T02:40:43;14.50;99.90
16995;DHT22;8614;48.522;9.206;2022-10-16T02:43:10;14.40;99.90
16995;DHT22;8614;48.522;9.206;2022-10-16T02:45:37;14.40;99.90
16995;DHT22;8614;48.522;9.206;2022-10-16T02:48:05;14.40;99.90
16995;DHT22;8614;48.522;9.206;2022-10-16T02:50:33;14.30;99.90
16995;DHT22;8614;48.522;9.206;2022-10-16T02:53:00;14.30;99.90
16995;DHT22;8614;48.522;9.206;2022-10-16T02:55:27;14.30;99.90
16995;DHT22;8614;48.522;9.206;2022-10-16T02:57:54;14.30;99.90
16995;DHT22;8614;48.522;9.206;2022-10-16T03:00:22;14.30;99.90
16995;DHT22;8614;48.522;9.206;2022-10-16T03:02:50;14.30;99.90
16995;DHT22;8614;48.522;9.206;2022-10-16T03:05:17;14.30;99.90
16995;DHT22;8614;48.522;9.206;2022-10-16T03:07:45;14.30;99.90
16995;DHT22;8614;48.522;9.206;2022-10-16T03:10:12;14.30;99.90
16995;DHT22;8614;48.522;9.206;2022-10-16T03:12:39;14.30;99.90
16995;DHT22;8614;48.522;9.206;2022-10-16T03:15:06;14.30;99.90
16995;DHT22;8614;48.522;9.206;2022-10-16T03:17:33;14.30;99.90
16995;DHT22;8614;48.522;9.206;2022-10-16T03:20:00;14.20;99.90
16995;DHT22;8614;48.522;9.206;2022-10-16T03:22:27;14.20;99.90
16995;DHT22;8614;48.522;9.206;2022-10-16T03:24:55;14.20;99.90
16995;DHT22;8614;48.522;9.206;2022-10-16T03:27:22;14.20;99.90
16995;DHT22;8614;48.522;9.206;2022-10-16T03:29:49;14.20;99.90
16995;DHT22;8614;48.522;9.206;2022-10-16T03:32:16;14.20;99.90
16995;DHT22;8614;48.522;9.206;2022-10-16T03:34:44;14.20;99.90
16995;DHT22;8614;48.522;9.206;2022-10-16T03:37:10;14.20;99.90
16995;DHT22;8614;48.522;9.206;2022-10-16T03:39:37;14.20;99.90
16995;DHT22;8614;48.522;9.206;2022-10-16T03:42:06;14.20;99.90
16995;DHT22;8614;48.522;9.206;2022-10-16T03:44:32;14.30;99.90
16995;DHT22;8614;48.522;9.206;2022-10-16T03:46:59;14.30;99.90
16995;DHT22;8614;48.522;9.206;2022-10-16T03:49:26;14.30;99.90
16995;DHT22;8614;48.522;9.206;2022-10-16T03:51:53;14.20;99.90
16995;DHT22;8614;48.522;9.206;2022-10-16T03:54:20;14.20;99.90
16995;DHT22;8614;48.522;9.206;2022-10-16T03:56:47;14.20;99.90
16995;DHT22;8614;48.522;9.206;2022-10-16T03:59:16;14.20;99.90
16995;DHT22;8614;48.522;9.206;2022-10-16T04:01:43;14.20;99.90
16995;DHT22;8614;48.522;9.206;2022-10-16T04:04:10;14.20;99.90
16995;DHT22;8614;48.522;9.206;2022-10-16T04:06:37;14.20;99.90
16995;DHT22;8614;48.522;9.206;2022-10-16T04:09:04;14.10;99.90
16995;DHT22;8614;48.522;9.206;2022-10-16T04:11:31;14.20;99.90
16995;DHT22;8614;48.522;9.206;2022-10-16T04:13:58;14.10;99.90
16995;DHT22;8614;48.522;9.206;2022-10-16T04:16:26;14.10;99.90
16995;DHT22;8614;48.522;9.206;2022-10-16T04:18:53;14.10;99.90
16995;DHT22;8614;48.522;9.206;2022-10-16T04:21:20;14.10;99.90
16995;DHT22;8614;48.522;9.206;2022-10-16T04:23:47;14.10;99.90
16995;DHT22;8614;48.522;9.206;2022-10-16T04:26:15;14.10;99.90
16995;DHT22;8614;48.522;9.206;2022-10-16T04:28:47;14.10;99.90
16995;DHT22;8614;48.522;9.206;2022-10-16T04:31:14;14.10;99.90
16995;DHT22;8614;48.522;9.206;2022-10-16T04:33:43;14.10;99.90
16995;DHT22;8614;48.522;9.206;2022-10-16T04:36:10;14.10;99.90
16995;DHT22;8614;48.522;9.206;2022-10-16T04:38:37;14.10;99.90
16995;DHT22;8614;48.522;9.206;2022-10-16T04:41:05;14.10;99.90
16995;DHT22;8614;48.522;9.206;2022-10-16T04:43:32;14.10;99.90
16995;DHT22;8614;48.522;9.206;2022-10-16T04:46:00;14.10;99.90
16995;DHT22;8614;48.522;9.206;2022-10-16T04:48:27;14.10;99.90
16995;DHT22;8614;48.522;9.206;2022-10-16T04:50:55;14.10;99.90
16995;DHT22;8614;48.522;9.206;2022-10-16T04:53:23;14.10;99.90
16995;DHT22;8614;48.522;9.206;2022-10-16T04:55:50;14.10;99.90
16995;DHT22;8614;48.522;9.206;2022-10-16T04:58:17;14.10;99.90
16995;DHT22;8614;48.522;9.206;2022-10-16T05:00:44;14.00;99.90
16995;DHT22;8614;48.522;9.206;2022-10-16T05:03:11;14.10;99.90
16995;DHT22;8614;48.522;9.206;2022-10-16T05:05:42;14.00;99.90
16995;DHT22;8614;48.522;9.206;2022-10-16T05:08:11;14.10;99.90
16995;DHT22;8614;48.522;9.206;2022-10-16T05:10:39;14.00;99.90
16995;DHT22;8614;48.522;9.206;2022-10-16T05:13:07;14.10;99.90
16995;DHT22;8614;48.522;9.206;2022-10-16T05:15:34;14.10;99.90
16995;DHT22;8614;48.522;9.206;2022-10-16T05:18:01;14.00;99.90
16995;DHT22;8614;48.522;9.206;2022-10-16T05:20:28;14.00;99.90
16995;DHT22;8614;48.522;9.206;2022-10-16T05:22:55;14.00;99.90
16995;DHT22;8614;48.522;9.206;2022-10-16T05:25:24;13.90;99.90
16995;DHT22;8614;48.522;9.206;2022-10-16T05:27:51;13.90;99.90
16995;DHT22;8614;48.522;9.206;2022-10-16T05:30:18;13.90;99.90
16995;DHT22;8614;48.522;9.206;2022-10-16T05:32:49;13.80;99.90
16995;DHT22;8614;48.522;9.206;2022-10-16T05:35:17;13.80;99.90
16995;DHT22;8614;48.522;9.206;2022-10-16T05:37:53;13.80;99.90
16995;DHT22;8614;48.522;9.206;2022-10-16T05:40:20;13.80;99.90
16995;DHT22;8614;48.522;9.206;2022-10-16T05:42:48;13.70;99.90
16995;DHT22;8614;48.522;9.206;2022-10-16T05:45:15;13.70;99.90
16995;DHT22;8614;48.522;9.206;2022-10-16T05:47:42;13.70;99.90
16995;DHT22;8614;48.522;9.206;2022-10-16T05:50:09;13.70;99.90
16995;DHT22;8614;48.522;9.206;2022-10-16T05:52:36;13.70;99.90
16995;DHT22;8614;48.522;9.206;2022-10-16T05:55:04;13.70;99.90
16995;DHT22;8614;48.522;9.206;2022-10-16T05:57:31;13.70;99.90
16995;DHT22;8614;48.522;9.206;2022-10-16T05:59:59;13.70;99.90
16995;DHT22;8614;48.522;9.206;2022-10-16T06:02:27;13.80;99.90
16995;DHT22;8614;48.522;9.206;2022-10-16T06:04:54;13.80;99.90
16995;DHT22;8614;48.522;9.206;2022-10-16T06:07:21;13.90;99.90
16995;DHT22;8614;48.522;9.206;2022-10-16T06:09:49;13.90;99.90
16995;DHT22;8614;48.522;9.206;2022-10-16T06:12:20;14.00;99.90
16995;DHT22;8614;48.522;9.206;2022-10-16T06:14:47;14.10;99.90
16995;DHT22;8614;48.522;9.206;2022-10-16T06:17:16;14.20;99.90
16995;DHT22;8614;48.522;9.206;2022-10-16T06:19:43;14.20;99.90
16995;DHT22;8614;48.522;9.206;2022-10-16T06:22:10;14.20;99.90
16995;DHT22;8614;48.522;9.206;2022-10-16T06:24:38;14.30;99.90
16995;DHT22;8614;48.522;9.206;2022-10-16T06:27:06;14.30;99.90
16995;DHT22;8614;48.522;9.206;2022-10-16T06:29:34;14.40;99.90
16995;DHT22;8614;48.522;9.206;2022-10-16T06:32:01;14.30;99.90
16995;DHT22;8614;48.522;9.206;2022-10-16T06:34:30;14.30;99.90
16995;DHT22;8614;48.522;9.206;2022-10-16T06:36:57;14.40;99.90
16995;DHT22;8614;48.522;9.206;2022-10-16T06:39:29;14.40;99.90
16995;DHT22;8614;48.522;9.206;2022-10-16T06:41:58;14.50;99.90
16995;DHT22;8614;48.522;9.206;2022-10-16T06:44:34;14.60;99.90
16995;DHT22;8614;48.522;9.206;2022-10-16T06:47:04;14.70;99.90
16995;DHT22;8614;48.522;9.206;2022-10-16T06:49:35;14.90;99.90
16995;DHT22;8614;48.522;9.206;2022-10-16T06:52:07;15.00;99.90
16995;DHT22;8614;48.522;9.206;2022-10-16T06:54:37;15.10;99.90
16995;DHT22;8614;48.522;9.206;2022-10-16T06:57:04;15.20;99.90
16995;DHT22;8614;48.522;9.206;2022-10-16T06:59:31;15.30;99.90
16995;DHT22;8614;48.522;9.206;2022-10-16T07:01:58;15.40;99.90
16995;DHT22;8614;48.522;9.206;2022-10-16T07:04:25;15.40;99.90
16995;DHT22;8614;48.522;9.206;2022-10-16T07:06:54;15.50;99.90
16995;DHT22;8614;48.522;9.206;2022-10-16T07:09:20;15.50;99.90
16995;DHT22;8614;48.522;9.206;2022-10-16T07:11:50;15.60;99.90
16995;DHT22;8614;48.522;9.206;2022-10-16T07:14:19;15.60;99.90
16995;DHT22;8614;48.522;9.206;2022-10-16T07:16:53;15.70;99.90
16995;DHT22;8614;48.522;9.206;2022-10-16T07:19:20;15.80;99.90
16995;DHT22;8614;48.522;9.206;2022-10-16T07:21:47;15.80;99.90
16995;DHT22;8614;48.522;9.206;2022-10-16T07:24:16;15.90;99.90
16995;DHT22;8614;48.522;9.206;2022-10-16T07:26:44;16.00;99.90
16995;DHT22;8614;48.522;9.206;2022-10-16T07:29:13;16.10;99.90
16995;DHT22;8614;48.522;9.206;2022-10-16T07:31:40;16.20;99.90
16995;DHT22;8614;48.522;9.206;2022-10-16T07:34:09;16.30;99.90
16995;DHT22;8614;48.522;9.206;2022-10-16T07:36:39;16.40;99.90
16995;DHT22;8614;48.522;9.206;2022-10-16T07:39:09;16.40;99.90
16995;DHT22;8614;48.522;9.206;2022-10-16T07:41:40;16.50;99.90
16995;DHT22;8614;48.522;9.206;2022-10-16T07:44:11;16.60;99.90
16995;DHT22;8614;48.522;9.206;2022-10-16T07:46:44;16.60;99.90
16995;DHT22;8614;48.522;9.206;2022-10-16T07:49:12;16.70;99.90
16995;DHT22;8614;48.522;9.206;2022-10-16T07:51:39;16.80;99.90
16995;DHT22;8614;48.522;9.206;2022-10-16T07:54:08;16.90;99.90
16995;DHT22;8614;48.522;9.206;2022-10-16T07:56:42;16.90;99.90
16995;DHT22;8614;48.522;9.206;2022-10-16T07:59:09;17.00;99.90
16995;DHT22;8614;48.522;9.206;2022-10-16T08:01:36;17.20;99.90
16995;DHT22;8614;48.522;9.206;2022-10-16T08:04:04;17.30;99.90
16995;DHT22;8614;48.522;9.206;2022-10-16T08:06:36;17.50;99.90
16995;DHT22;8614;48.522;9.206;2022-10-16T08:09:04;17.60;99.90
16995;DHT22;8614;48.522;9.206;2022-10-16T08:11:31;17.60;99.90
16995;DHT22;8614;48.522;9.206;2022-10-16T08:14:00;17.60;99.90
16995;DHT22;8614;48.522;9.206;2022-10-16T08:16:29;17.60;99.90
16995;DHT22;8614;48.522;9.206;2022-10-16T08:19:02;17.60;99.90
16995;DHT22;8614;48.522;9.206;2022-10-16T08:21:32;17.60;99.90
16995;DHT22;8614;48.522;9.206;2022-10-16T08:23:59;17.60;99.90
16995;DHT22;8614;48.522;9.206;2022-10-16T08:26:26;17.80;99.90
16995;DHT22;8614;48.522;9.206;2022-10-16T08:28:54;18.00;99.90
16995;DHT22;8614;48.522;9.206;2022-10-16T08:31:25;18.10;99.90
16995;DHT22;8614;48.522;9.206;2022-10-16T08:33:55;18.30;99.90
16995;DHT22;8614;48.522;9.206;2022-10-16T08:36:22;18.40;99.90
16995;DHT22;8614;48.522;9.206;2022-10-16T08:38:49;18.70;99.90
16995;DHT22;8614;48.522;9.206;2022-10-16T08:41:31;18.80;99.90
16995;DHT22;8614;48.522;9.206;2022-10-16T08:44:30;18.90;99.90
16995;DHT22;8614;48.522;9.206;2022-10-16T08:47:08;19.00;99.90
16995;DHT22;8614;48.522;9.206;2022-10-16T08:49:38;19.10;99.90
16995;DHT22;8614;48.522;9.206;2022-10-16T08:52:11;19.10;99.90
16995;DHT22;8614;48.522;9.206;2022-10-16T08:54:42;19.00;99.90
16995;DHT22;8614;48.522;9.206;2022-10-16T08:57:14;19.00;99.90
16995;DHT22;8614;48.522;9.206;2022-10-16T08:59:43;19.20;99.90
16995;DHT22;8614;48.522;9.206;2022-10-16T09:02:24;19.30;99.90
16995;DHT22;8614;48.522;9.206;2022-10-16T09:04:59;19.30;99.90
16995;DHT22;8614;48.522;9.206;2022-10-16T09:07:34;19.30;99.90
16995;DHT22;8614;48.522;9.206;2022-10-16T09:10:24;19.40;99.90
16995;DHT22;8614;48.522;9.206;2022-10-16T09:12:57;19.60;99.90
16995;DHT22;8614;48.522;9.206;2022-10-16T09:15:32;19.80;99.90
16995;DHT22;8614;48.522;9.206;2022-10-16T09:18:09;19.80;99.90
16995;DHT22;8614;48.522;9.206;2022-10-16T09:20:45;20.00;99.90
16995;DHT22;8614;48.522;9.206;2022-10-16T09:23:18;20.20;99.90
16995;DHT22;8614;48.522;9.206;2022-10-16T09:25:47;20.50;99.90
16995;DHT22;8614;48.522;9.206;2022-10-16T09:28:16;20.60;99.90
16995;DHT22;8614;48.522;9.206;2022-10-16T09:30:44;20.80;99.90
16995;DHT22;8614;48.522;9.206;2022-10-16T09:33:17;20.90;99.90
16995;DHT22;8614;48.522;9.206;2022-10-16T09:35:50;20.80;99.90
16995;DHT22;8614;48.522;9.206;2022-10-16T09:38:24;20.70;99.90
16995;DHT22;8614;48.522;9.206;2022-10-16T09:40:52;20.60;99.90
16995;DHT22;8614;48.522;9.206;2022-10-16T09:43:23;20.60;99.90
16995;DHT22;8614;48.522;9.206;2022-10-16T09:45:54;20.70;99.90
16995;DHT22;8614;48.522;9.206;2022-10-16T09:48:25;20.90;99.90
16995;DHT22;8614;48.522;9.206;2022-10-16T09:50:57;20.90;99.90
16995;DHT22;8614;48.522;9.206;2022-10-16T09:53:26;20.90;99.90
16995;DHT22;8614;48.522;9.206;2022-10-16T09:56:04;20.90;99.90
16995;DHT22;8614;48.522;9.206;2022-10-16T09:58:32;20.90;99.90
16995;DHT22;8614;48.522;9.206;2022-10-16T10:01:00;20.80;99.90
16995;DHT22;8614;48.522;9.206;2022-10-16T10:03:37;20.70;99.90
16995;DHT22;8614;48.522;9.206;2022-10-16T10:06:15;20.60;99.90
16995;DHT22;8614;48.522;9.206;2022-10-16T10:08:56;20.60;99.90
16995;DHT22;8614;48.522;9.206;2022-10-16T10:11:43;20.50;99.90
16995;DHT22;8614;48.522;9.206;2022-10-16T10:14:22;20.50;99.90
16995;DHT22;8614;48.522;9.206;2022-10-16T10:16:50;20.50;99.90
16995;DHT22;8614;48.522;9.206;2022-10-16T10:19:20;20.40;99.90
16995;DHT22;8614;48.522;9.206;2022-10-16T10:21:48;20.30;99.90
16995;DHT22;8614;48.522;9.206;2022-10-16T10:24:17;20.20;99.90
16995;DHT22;8614;48.522;9.206;2022-10-16T10:26:52;20.20;99.90
16995;DHT22;8614;48.522;9.206;2022-10-16T10:29:31;20.40;99.90
16995;DHT22;8614;48.522;9.206;2022-10-16T10:32:10;20.70;99.90
16995;DHT22;8614;48.522;9.206;2022-10-16T10:34:51;21.10;99.90
16995;DHT22;8614;48.522;9.206;2022-10-16T10:37:31;21.50;99.90
16995;DHT22;8614;48.522;9.206;2022-10-16T10:40:08;21.80;99.90
16995;DHT22;8614;48.522;9.206;2022-10-16T10:42:43;22.10;99.90
16995;DHT22;8614;48.522;9.206;2022-10-16T10:45:27;22.30;99.90
16995;DHT22;8614;48.522;9.206;2022-10-16T10:48:03;22.50;99.90
16995;DHT22;8614;48.522;9.206;2022-10-16T10:50:39;22.50;99.90
16995;DHT22;8614;48.522;9.206;2022-10-16T10:53:12;22.40;99.90
16995;DHT22;8614;48.522;9.206;2022-10-16T10:55:49;22.30;99.90
16995;DHT22;8614;48.522;9.206;2022-10-16T10:58:40;22.30;99.90
16995;DHT22;8614;48.522;9.206;2022-10-16T11:01:12;22.20;99.90
16995;DHT22;8614;48.522;9.206;2022-10-16T11:06:39;22.10;99.90
16995;DHT22;8614;48.522;9.206;2022-10-16T11:09:11;22.20;99.90
16995;DHT22;8614;48.522;9.206;2022-10-16T11:11:42;22.10;99.90
16995;DHT22;8614;48.522;9.206;2022-10-16T11:14:14;22.10;99.90
16995;DHT22;8614;48.522;9.206;2022-10-16T11:16:48;22.20;99.90
16995;DHT22;8614;48.522;9.206;2022-10-16T11:19:33;22.20;99.90
16995;DHT22;8614;48.522;9.206;2022-10-16T11:22:09;22.30;99.90
16995;DHT22;8614;48.522;9.206;2022-10-16T11:24:44;22.30;99.90
16995;DHT22;8614;48.522;9.206;2022-10-16T11:27:16;22.40;99.90
16995;DHT22;8614;48.522;9.206;2022-10-16T11:29:49;22.30;99.90
16995;DHT22;8614;48.522;9.206;2022-10-16T11:32:22;22.40;99.90
16995;DHT22;8614;48.522;9.206;2022-10-16T11:34:53;22.40;99.90
16995;DHT22;8614;48.522;9.206;2022-10-16T11:37:27;22.40;99.90
16995;DHT22;8614;48.522;9.206;2022-10-16T11:40:03;22.50;99.90
16995;DHT22;8614;48.522;9.206;2022-10-16T11:42:39;22.40;99.90
16995;DHT22;8614;48.522;9.206;2022-10-16T11:45:15;22.40;99.90
16995;DHT22;8614;48.522;9.206;2022-10-16T11:47:53;22.40;99.90
16995;DHT22;8614;48.522;9.206;2022-10-16T11:50:26;22.40;99.90
16995;DHT22;8614;48.522;9.206;2022-10-16T11:53:03;22.40;99.90
16995;DHT22;8614;48.522;9.206;2022-10-16T11:55:34;22.30;99.90
16995;DHT22;8614;48.522;9.206;2022-10-16T11:58:05;22.20;99.90
16995;DHT22;8614;48.522;9.206;2022-10-16T12:00:37;22.20;99.90
16995;DHT22;8614;48.522;9.206;2022-10-16T12:03:14;22.30;99.90
16995;DHT22;8614;48.522;9.206;2022-10-16T12:06:10;22.30;99.90
16995;DHT22;8614;48.522;9.206;2022-10-16T12:08:40;22.30;99.90
16995;DHT22;8614;48.522;9.206;2022-10-16T12:11:09;22.30;99.90
16995;DHT22;8614;48.522;9.206;2022-10-16T12:13:38;22.30;99.90
16995;DHT22;8614;48.522;9.206;2022-10-16T12:16:08;22.30;99.90
16995;DHT22;8614;48.522;9.206;2022-10-16T12:18:47;22.40;99.90
16995;DHT22;8614;48.522;9.206;2022-10-16T12:21:15;22.40;99.90
16995;DHT22;8614;48.522;9.206;2022-10-16T12:23:50;22.40;99.90
16995;DHT22;8614;48.522;9.206;2022-10-16T12:26:25;22.40;99.90
16995;DHT22;8614;48.522;9.206;2022-10-16T12:28:52;22.40;99.90
16995;DHT22;8614;48.522;9.206;2022-10-16T12:31:19;22.40;99.90
16995;DHT22;8614;48.522;9.206;2022-10-16T12:33:57;22.50;99.90
16995;DHT22;8614;48.522;9.206;2022-10-16T12:36:29;22.40;99.90
16995;DHT22;8614;48.522;9.206;2022-10-16T12:38:58;22.50;99.90
16995;DHT22;8614;48.522;9.206;2022-10-16T12:41:27;22.50;99.90
16995;DHT22;8614;48.522;9.206;2022-10-16T12:43:56;22.50;99.90
16995;DHT22;8614;48.522;9.206;2022-10-16T12:46:38;22.50;99.90
16995;DHT22;8614;48.522;9.206;2022-10-16T12:49:22;22.50;99.90
16995;DHT22;8614;48.522;9.206;2022-10-16T12:51:50;22.40;99.90
16995;DHT22;8614;48.522;9.206;2022-10-16T12:54:20;22.30;99.90
16995;DHT22;8614;48.522;9.206;2022-10-16T13:00:33;22.30;99.90
16995;DHT22;8614;48.522;9.206;2022-10-16T13:06:39;22.40;99.90
16995;DHT22;8614;48.522;9.206;2022-10-16T13:09:26;22.60;99.90
16995;DHT22;8614;48.522;9.206;2022-10-16T13:12:05;22.70;99.90
16995;DHT22;8614;48.522;9.206;2022-10-16T13:14:52;22.80;99.90
16995;DHT22;8614;48.522;9.206;2022-10-16T13:17:25;22.90;99.90
16995;DHT22;8614;48.522;9.206;2022-10-16T13:20:02;22.90;99.90
16995;DHT22;8614;48.522;9.206;2022-10-16T13:22:38;22.90;99.90
16995;DHT22;8614;48.522;9.206;2022-10-16T13:25:19;22.90;99.90
16995;DHT22;8614;48.522;9.206;2022-10-16T13:27:54;22.90;99.90
16995;DHT22;8614;48.522;9.206;2022-10-16T13:30:24;22.90;99.90
16995;DHT22;8614;48.522;9.206;2022-10-16T13:32:56;22.90;99.90
16995;DHT22;8614;48.522;9.206;2022-10-16T13:35:26;22.80;99.90
16995;DHT22;8614;48.522;9.206;2022-10-16T13:38:04;22.80;99.90
16995;DHT22;8614;48.522;9.206;2022-10-16T13:40:32;22.80;99.90
16995;DHT22;8614;48.522;9.206;2022-10-16T13:43:00;22.70;99.90
16995;DHT22;8614;48.522;9.206;2022-10-16T13:45:27;22.70;99.90
16995;DHT22;8614;48.522;9.206;2022-10-16T13:48:02;22.70;99.90
16995;DHT22;8614;48.522;9.206;2022-10-16T13:50:29;22.70;99.90
16995;DHT22;8614;48.522;9.206;2022-10-16T13:53:04;22.70;99.90
16995;DHT22;8614;48.522;9.206;2022-10-16T14:38:49;22.50;99.90
16995;DHT22;8614;48.522;9.206;2022-10-16T14:42:14;22.50;99.90
16995;DHT22;8614;48.522;9.206;2022-10-16T14:44:42;22.50;99.90
16995;DHT22;8614;48.522;9.206;2022-10-16T14:47:13;22.50;99.90
16995;DHT22;8614;48.522;9.206;2022-10-16T14:49:42;22.50;99.90
16995;DHT22;8614;48.522;9.206;2022-10-16T14:52:10;22.50;99.90
16995;DHT22;8614;48.522;9.206;2022-10-16T14:54:40;22.50;99.90
16995;DHT22;8614;48.522;9.206;2022-10-16T14:57:16;22.50;99.90
16995;DHT22;8614;48.522;9.206;2022-10-16T14:59:43;22.50;99.90
16995;DHT22;8614;48.522;9.206;2022-10-16T15:02:18;22.50;99.90
16995;DHT22;8614;48.522;9.206;2022-10-16T15:04:48;22.50;99.90
16995;DHT22;8614;48.522;9.206;2022-10-16T15:07:15;22.50;99.90
16995;DHT22;8614;48.522;9.206;2022-10-16T15:09:43;22.50;99.90
16995;DHT22;8614;48.522;9.206;2022-10-16T15:12:10;22.40;99.90
16995;DHT22;8614;48.522;9.206;2022-10-16T15:14:37;22.30;99.90
16995;DHT22;8614;48.522;9.206;2022-10-16T15:17:04;22.20;99.90
16995;DHT22;8614;48.522;9.206;2022-10-16T15:19:31;22.10;99.90
16995;DHT22;8614;48.522;9.206;2022-10-16T15:21:59;22.00;99.90
16995;DHT22;8614;48.522;9.206;2022-10-16T15:24:26;21.80;99.90
16995;DHT22;8614;48.522;9.206;2022-10-16T15:26:54;21.80;99.90
16995;DHT22;8614;48.522;9.206;2022-10-16T15:29:21;21.70;99.90
16995;DHT22;8614;48.522;9.206;2022-10-16T15:31:48;21.60;99.90
16995;DHT22;8614;48.522;9.206;2022-10-16T15:34:16;21.70;99.90
16995;DHT22;8614;48.522;9.206;2022-10-16T15:36:45;21.70;99.90
16995;DHT22;8614;48.522;9.206;2022-10-16T15:39:13;21.70;99.90
16995;DHT22;8614;48.522;9.206;2022-10-16T15:41:41;21.60;99.90
16995;DHT22;8614;48.522;9.206;2022-10-16T15:44:09;21.60;99.90
16995;DHT22;8614;48.522;9.206;2022-10-16T15:46:36;21.60;99.90
16995;DHT22;8614;48.522;9.206;2022-10-16T15:49:03;21.60;99.90
16995;DHT22;8614;48.522;9.206;2022-10-16T15:51:30;21.60;99.90
16995;DHT22;8614;48.522;9.206;2022-10-16T15:53:59;21.60;99.90
16995;DHT22;8614;48.522;9.206;2022-10-16T15:56:27;21.50;99.90
16995;DHT22;8614;48.522;9.206;2022-10-16T15:58:54;21.50;99.90
16995;DHT22;8614;48.522;9.206;2022-10-16T16:01:27;21.40;99.90
16995;DHT22;8614;48.522;9.206;2022-10-16T16:03:55;21.30;99.90
16995;DHT22;8614;48.522;9.206;2022-10-16T16:06:22;21.20;99.90
16995;DHT22;8614;48.522;9.206;2022-10-16T16:08:50;21.10;99.90
16995;DHT22;8614;48.522;9.206;2022-10-16T16:11:18;21.00;99.90
16995;DHT22;8614;48.522;9.206;2022-10-16T16:13:45;20.80;99.90
16995;DHT22;8614;48.522;9.206;2022-10-16T16:16:14;20.70;99.90
16995;DHT22;8614;48.522;9.206;2022-10-16T16:18:48;20.60;99.90
16995;DHT22;8614;48.522;9.206;2022-10-16T16:21:23;20.40;99.90
16995;DHT22;8614;48.522;9.206;2022-10-16T16:23:49;20.30;99.90
16995;DHT22;8614;48.522;9.206;2022-10-16T16:26:23;20.20;99.90
16995;DHT22;8614;48.522;9.206;2022-10-16T16:28:52;20.10;99.90
16995;DHT22;8614;48.522;9.206;2022-10-16T16:31:19;20.00;99.90
16995;DHT22;8614;48.522;9.206;2022-10-16T16:33:48;19.80;99.90
16995;DHT22;8614;48.522;9.206;2022-10-16T16:36:17;19.70;99.90
16995;DHT22;8614;48.522;9.206;2022-10-16T16:38:44;19.50;99.90
16995;DHT22;8614;48.522;9.206;2022-10-16T16:41:12;19.40;99.90
16995;DHT22;8614;48.522;9.206;2022-10-16T16:43:39;19.30;99.90
16995;DHT22;8614;48.522;9.206;2022-10-16T16:46:06;19.20;99.90
16995;DHT22;8614;48.522;9.206;2022-10-16T16:48:33;19.10;99.90
16995;DHT22;8614;48.522;9.206;2022-10-16T16:51:04;18.90;99.90
16995;DHT22;8614;48.522;9.206;2022-10-16T16:53:33;18.80;99.90
16995;DHT22;8614;48.522;9.206;2022-10-16T16:56:01;18.70;99.90
16995;DHT22;8614;48.522;9.206;2022-10-16T16:58:29;18.60;99.90